sensor_id;sensor_type;location;lat;lon;timestamp;P1;durP1;ratioP1;P2;durP2;ratioP2
52620;SDS011;38515;53.160;6.990;2022-09-09T00:00:47;1999.90;;;999.90;;
52620;SDS011;38515;53.160;6.990;2022-09-09T00:03:25;1999.90;;;999.90;;
52620;SDS011;38515;53.160;6.990;2022-09-09T00:05:59;1999.90;;;999.90;;
52620;SDS011;38515;53.160;6.990;2022-09-09T00:08:43;1999.90;;;999.90;;
52620;SDS011;38515;53.160;6.990;2022-09-09T00:11:21;1999.90;;;999.90;;
52620;SDS011;38515;53.160;6.990;2022-09-09T00:13:52;1999.90;;;999.90;;
52620;SDS011;38515;53.160;6.990;2022-09-09T00:16:22;1999.90;;;999.90;;
52620;SDS011;38515;53.160;6.990;2022-09-09T00:18:53;1999.90;;;999.90;;
52620;SDS011;38515;53.160;6.990;2022-09-09T00:21:24;1999.90;;;999.90;;
52620;SDS011;38515;53.160;6.990;2022-09-09T00:24:00;1999.90;;;999.90;;
52620;SDS011;38515;53.160;6.990;2022-09-09T00:26:40;1999.90;;;999.90;;
52620;SDS011;38515;53.160;6.990;2022-09-09T00:29:13;1999.90;;;999.90;;
52620;SDS011;38515;53.160;6.990;2022-09-09T00:31:47;1999.90;;;999.90;;
52620;SDS011;38515;53.160;6.990;2022-09-09T00:34:15;1999.90;;;999.90;;
52620;SDS011;38515;53.160;6.990;2022-09-09T00:36:45;1999.90;;;999.90;;
52620;SDS011;38515;53.160;6.990;2022-09-09T00:39:27;1999.90;;;999.90;;
52620;SDS011;38515;53.160;6.990;2022-09-09T00:42:04;1999.90;;;999.90;;
52620;SDS011;38515;53.160;6.990;2022-09-09T00:47:50;1999.90;;;999.90;;
52620;SDS011;38515;53.160;6.990;2022-09-09T00:50:22;1999.90;;;999.90;;
52620;SDS011;38515;53.160;6.990;2022-09-09T00:53:02;1999.90;;;999.90;;
52620;SDS011;38515;53.160;6.990;2022-09-09T00:55:51;1999.90;;;999.90;;
52620;SDS011;38515;53.160;6.990;2022-09-09T00:58:26;1999.90;;;999.90;;
52620;SDS011;38515;53.160;6.990;2022-09-09T01:00:56;1999.90;;;999.90;;
52620;SDS011;38515;53.160;6.990;2022-09-09T01:03:39;1999.90;;;999.90;;
52620;SDS011;38515;53.160;6.990;2022-09-09T01:06:21;1999.90;;;999.90;;
52620;SDS011;38515;53.160;6.990;2022-09-09T01:08:52;1999.90;;;999.90;;
52620;SDS011;38515;53.160;6.990;2022-09-09T01:11:23;1999.90;;;999.90;;
52620;SDS011;38515;53.160;6.990;2022-09-09T01:14:01;1999.90;;;999.90;;
52620;SDS011;38515;53.160;6.990;2022-09-09T01:16:50;1999.90;;;999.90;;
52620;SDS011;38515;53.160;6.990;2022-09-09T01:19:24;1999.90;;;999.90;;
52620;SDS011;38515;53.160;6.990;2022-09-09T01:22:09;1999.90;;;999.90;;
52620;SDS011;38515;53.160;6.990;2022-09-09T01:27:30;1999.90;;;999.90;;
52620;SDS011;38515;53.160;6.990;2022-09-09T01:29:57;1999.90;;;999.90;;
52620;SDS011;38515;53.160;6.990;2022-09-09T01:32:42;1999.90;;;999.90;;
52620;SDS011;38515;53.160;6.990;2022-09-09T01:35:11;1999.90;;;999.90;;
52620;SDS011;38515;53.160;6.990;2022-09-09T01:37:52;1999.90;;;999.90;;
52620;SDS011;38515;53.160;6.990;2022-09-09T01:40:18;1999.90;;;999.90;;
52620;SDS011;38515;53.160;6.990;2022-09-09T01:42:44;1999.90;;;999.90;;
52620;SDS011;38515;53.160;6.990;2022-09-09T01:45:10;1999.90;;;999.90;;
52620;SDS011;38515;53.160;6.990;2022-09-09T01:47:36;1999.90;;;999.90;;
52620;SDS011;38515;53.160;6.990;2022-09-09T01:50:02;1999.90;;;999.90;;
52620;SDS011;38515;53.160;6.990;2022-09-09T01:52:28;1999.90;;;999.90;;
52620;SDS011;38515;53.160;6.990;2022-09-09T01:54:55;1999.90;;;999.90;;
52620;SDS011;38515;53.160;6.990;2022-09-09T01:57:26;1999.90;;;999.90;;
52620;SDS011;38515;53.160;6.990;2022-09-09T02:00:01;1999.90;;;999.90;;
52620;SDS011;38515;53.160;6.990;2022-09-09T02:10:26;1999.90;;;999.90;;
52620;SDS011;38515;53.160;6.990;2022-09-09T02:13:03;1999.90;;;999.90;;
52620;SDS011;38515;53.160;6.990;2022-09-09T02:15:35;1999.90;;;999.90;;
52620;SDS011;38515;53.160;6.990;2022-09-09T02:18:08;1999.90;;;999.90;;
52620;SDS011;38515;53.160;6.990;2022-09-09T02:20:38;1999.90;;;999.90;;
52620;SDS011;38515;53.160;6.990;2022-09-09T02:23:05;1999.90;;;999.90;;
52620;SDS011;38515;53.160;6.990;2022-09-09T02:25:33;1999.90;;;999.90;;
52620;SDS011;38515;53.160;6.990;2022-09-09T02:28:02;1999.90;;;999.90;;
52620;SDS011;38515;53.160;6.990;2022-09-09T02:30:32;1999.90;;;999.90;;
52620;SDS011;38515;53.160;6.990;2022-09-09T02:33:00;1999.90;;;999.90;;
52620;SDS011;38515;53.160;6.990;2022-09-09T02:35:29;1999.90;;;999.90;;
52620;SDS011;38515;53.160;6.990;2022-09-09T02:37:58;1999.90;;;999.90;;
52620;SDS011;38515;53.160;6.990;2022-09-09T02:40:28;1999.90;;;999.90;;
52620;SDS011;38515;53.160;6.990;2022-09-09T02:42:54;1999.90;;;999.90;;
52620;SDS011;38515;53.160;6.990;2022-09-09T02:45:22;1999.90;;;999.90;;
52620;SDS011;38515;53.160;6.990;2022-09-09T02:47:52;1999.90;;;999.90;;
52620;SDS011;38515;53.160;6.990;2022-09-09T02:50:31;1999.90;;;999.90;;
52620;SDS011;38515;53.160;6.990;2022-09-09T02:58:20;1999.90;;;999.90;;
52620;SDS011;38515;53.160;6.990;2022-09-09T03:00:47;1999.90;;;999.90;;
52620;SDS011;38515;53.160;6.990;2022-09-09T03:03:15;1999.90;;;999.90;;
52620;SDS011;38515;53.160;6.990;2022-09-09T03:05:42;1999.90;;;999.90;;
52620;SDS011;38515;53.160;6.990;2022-09-09T03:08:09;1999.90;;;999.90;;
52620;SDS011;38515;53.160;6.990;2022-09-09T03:10:35;1999.90;;;999.90;;
52620;SDS011;38515;53.160;6.990;2022-09-09T03:13:02;1999.90;;;999.90;;
52620;SDS011;38515;53.160;6.990;2022-09-09T03:15:31;1999.90;;;999.90;;
52620;SDS011;38515;53.160;6.990;2022-09-09T03:17:58;1999.90;;;999.90;;
52620;SDS011;38515;53.160;6.990;2022-09-09T03:20:25;1999.90;;;999.90;;
52620;SDS011;38515;53.160;6.990;2022-09-09T03:22:52;1999.90;;;999.90;;
52620;SDS011;38515;53.160;6.990;2022-09-09T03:25:19;1999.90;;;999.90;;
52620;SDS011;38515;53.160;6.990;2022-09-09T03:27:45;1999.90;;;999.90;;
52620;SDS011;38515;53.160;6.990;2022-09-09T03:30:11;1999.90;;;999.90;;
52620;SDS011;38515;53.160;6.990;2022-09-09T03:32:37;1999.90;;;999.90;;
52620;SDS011;38515;53.160;6.990;2022-09-09T03:35:03;1999.90;;;999.90;;
52620;SDS011;38515;53.160;6.990;2022-09-09T03:37:30;1999.90;;;999.90;;
52620;SDS011;38515;53.160;6.990;2022-09-09T03:39:56;1999.90;;;999.90;;
52620;SDS011;38515;53.160;6.990;2022-09-09T03:42:22;1999.90;;;999.90;;
52620;SDS011;38515;53.160;6.990;2022-09-09T03:44:48;1999.90;;;999.90;;
52620;SDS011;38515;53.160;6.990;2022-09-09T03:47:16;1999.90;;;999.90;;
52620;SDS011;38515;53.160;6.990;2022-09-09T03:49:43;1999.90;;;999.90;;
52620;SDS011;38515;53.160;6.990;2022-09-09T03:52:10;1999.90;;;999.90;;
52620;SDS011;38515;53.160;6.990;2022-09-09T03:54:36;1999.90;;;999.90;;
52620;SDS011;38515;53.160;6.990;2022-09-09T03:57:02;1999.90;;;999.90;;
52620;SDS011;38515;53.160;6.990;2022-09-09T03:59:29;1999.90;;;999.90;;
52620;SDS011;38515;53.160;6.990;2022-09-09T04:01:55;1999.90;;;999.90;;
52620;SDS011;38515;53.160;6.990;2022-09-09T04:04:24;1999.90;;;999.90;;
52620;SDS011;38515;53.160;6.990;2022-09-09T04:06:51;1999.90;;;999.90;;
52620;SDS011;38515;53.160;6.990;2022-09-09T04:09:18;1999.90;;;999.90;;
52620;SDS011;38515;53.160;6.990;2022-09-09T04:11:43;1999.90;;;999.90;;
52620;SDS011;38515;53.160;6.990;2022-09-09T04:14:11;1999.90;;;999.90;;
52620;SDS011;38515;53.160;6.990;2022-09-09T04:16:37;1999.90;;;999.90;;
52620;SDS011;38515;53.160;6.990;2022-09-09T04:19:04;1999.90;;;999.90;;
52620;SDS011;38515;53.160;6.990;2022-09-09T04:21:31;1999.90;;;999.90;;
52620;SDS011;38515;53.160;6.990;2022-09-09T04:23:57;1999.90;;;999.90;;
52620;SDS011;38515;53.160;6.990;2022-09-09T04:26:23;1999.90;;;999.90;;
52620;SDS011;38515;53.160;6.990;2022-09-09T04:28:49;1999.90;;;999.90;;
52620;SDS011;38515;53.160;6.990;2022-09-09T04:31:16;1999.90;;;999.90;;
52620;SDS011;38515;53.160;6.990;2022-09-09T04:33:45;1999.90;;;999.90;;
52620;SDS011;38515;53.160;6.990;2022-09-09T04:36:11;1999.90;;;999.90;;
52620;SDS011;38515;53.160;6.990;2022-09-09T04:38:37;1999.90;;;999.90;;
52620;SDS011;38515;53.160;6.990;2022-09-09T04:41:04;1999.90;;;999.90;;
52620;SDS011;38515;53.160;6.990;2022-09-09T04:43:30;1999.90;;;999.90;;
52620;SDS011;38515;53.160;6.990;2022-09-09T04:45:57;1999.90;;;999.90;;
52620;SDS011;38515;53.160;6.990;2022-09-09T04:48:24;1999.90;;;999.90;;
52620;SDS011;38515;53.160;6.990;2022-09-09T04:50:57;1999.90;;;999.90;;
52620;SDS011;38515;53.160;6.990;2022-09-09T04:53:24;1999.90;;;999.90;;
52620;SDS011;38515;53.160;6.990;2022-09-09T04:55:51;1999.90;;;999.90;;
52620;SDS011;38515;53.160;6.990;2022-09-09T04:58:18;1999.90;;;999.90;;
52620;SDS011;38515;53.160;6.990;2022-09-09T05:00:44;1999.90;;;999.90;;
52620;SDS011;38515;53.160;6.990;2022-09-09T05:03:10;1999.90;;;999.90;;
52620;SDS011;38515;53.160;6.990;2022-09-09T05:05:35;1999.90;;;999.90;;
52620;SDS011;38515;53.160;6.990;2022-09-09T05:08:02;1999.90;;;999.90;;
52620;SDS011;38515;53.160;6.990;2022-09-09T05:10:29;1999.90;;;999.90;;
52620;SDS011;38515;53.160;6.990;2022-09-09T05:12:56;1999.90;;;999.90;;
52620;SDS011;38515;53.160;6.990;2022-09-09T05:15:22;1999.90;;;999.90;;
52620;SDS011;38515;53.160;6.990;2022-09-09T05:17:48;1999.90;;;999.90;;
52620;SDS011;38515;53.160;6.990;2022-09-09T05:20:13;1999.90;;;999.90;;
52620;SDS011;38515;53.160;6.990;2022-09-09T05:22:39;1999.90;;;999.90;;
52620;SDS011;38515;53.160;6.990;2022-09-09T05:25:05;1999.90;;;999.90;;
52620;SDS011;38515;53.160;6.990;2022-09-09T05:27:33;1999.90;;;999.90;;
52620;SDS011;38515;53.160;6.990;2022-09-09T05:29:59;1999.90;;;999.90;;
52620;SDS011;38515;53.160;6.990;2022-09-09T05:32:25;1999.90;;;999.90;;
52620;SDS011;38515;53.160;6.990;2022-09-09T05:34:51;1999.90;;;999.90;;
52620;SDS011;38515;53.160;6.990;2022-09-09T05:37:17;1999.90;;;999.90;;
52620;SDS011;38515;53.160;6.990;2022-09-09T05:39:43;1999.90;;;999.90;;
52620;SDS011;38515;53.160;6.990;2022-09-09T05:42:09;1999.90;;;999.90;;
52620;SDS011;38515;53.160;6.990;2022-09-09T05:44:35;1999.90;;;999.90;;
52620;SDS011;38515;53.160;6.990;2022-09-09T05:47:02;1999.90;;;999.90;;
52620;SDS011;38515;53.160;6.990;2022-09-09T05:49:28;1999.90;;;999.90;;
52620;SDS011;38515;53.160;6.990;2022-09-09T05:51:54;1999.90;;;999.90;;
52620;SDS011;38515;53.160;6.990;2022-09-09T05:54:20;1999.90;;;999.90;;
52620;SDS011;38515;53.160;6.990;2022-09-09T05:56:46;1999.90;;;999.90;;
52620;SDS011;38515;53.160;6.990;2022-09-09T05:59:12;1999.90;;;999.90;;
52620;SDS011;38515;53.160;6.990;2022-09-09T06:01:38;1999.90;;;999.90;;
52620;SDS011;38515;53.160;6.990;2022-09-09T06:04:05;1999.90;;;999.90;;
52620;SDS011;38515;53.160;6.990;2022-09-09T06:06:33;1999.90;;;999.90;;
52620;SDS011;38515;53.160;6.990;2022-09-09T06:09:07;1999.90;;;999.90;;
52620;SDS011;38515;53.160;6.990;2022-09-09T06:11:36;1999.90;;;999.90;;
52620;SDS011;38515;53.160;6.990;2022-09-09T06:14:03;1999.90;;;999.90;;
52620;SDS011;38515;53.160;6.990;2022-09-09T06:16:30;1999.90;;;999.90;;
52620;SDS011;38515;53.160;6.990;2022-09-09T06:19:03;1999.90;;;999.90;;
52620;SDS011;38515;53.160;6.990;2022-09-09T06:21:30;1999.90;;;999.90;;
52620;SDS011;38515;53.160;6.990;2022-09-09T06:23:58;1999.90;;;999.90;;
52620;SDS011;38515;53.160;6.990;2022-09-09T06:26:25;1999.90;;;999.90;;
52620;SDS011;38515;53.160;6.990;2022-09-09T06:28:54;1999.90;;;999.90;;
52620;SDS011;38515;53.160;6.990;2022-09-09T06:31:23;1999.90;;;999.90;;
52620;SDS011;38515;53.160;6.990;2022-09-09T06:33:50;1999.90;;;999.90;;
52620;SDS011;38515;53.160;6.990;2022-09-09T06:36:18;1999.90;;;999.90;;
52620;SDS011;38515;53.160;6.990;2022-09-09T06:38:45;1999.90;;;999.90;;
52620;SDS011;38515;53.160;6.990;2022-09-09T06:41:12;1999.90;;;999.90;;
52620;SDS011;38515;53.160;6.990;2022-09-09T06:43:40;1999.90;;;999.90;;
52620;SDS011;38515;53.160;6.990;2022-09-09T06:46:07;1999.90;;;999.90;;
52620;SDS011;38515;53.160;6.990;2022-09-09T06:48:35;1999.90;;;999.90;;
52620;SDS011;38515;53.160;6.990;2022-09-09T06:51:03;1999.90;;;999.90;;
52620;SDS011;38515;53.160;6.990;2022-09-09T06:53:33;1999.90;;;999.90;;
52620;SDS011;38515;53.160;6.990;2022-09-09T06:56:00;1999.90;;;999.90;;
52620;SDS011;38515;53.160;6.990;2022-09-09T06:58:40;1999.90;;;999.90;;
52620;SDS011;38515;53.160;6.990;2022-09-09T07:01:10;1999.90;;;999.90;;
52620;SDS011;38515;53.160;6.990;2022-09-09T07:03:38;1999.90;;;999.90;;
52620;SDS011;38515;53.160;6.990;2022-09-09T07:06:05;1999.90;;;999.90;;
52620;SDS011;38515;53.160;6.990;2022-09-09T07:08:39;1999.90;;;999.90;;
52620;SDS011;38515;53.160;6.990;2022-09-09T07:11:05;1999.90;;;999.90;;
52620;SDS011;38515;53.160;6.990;2022-09-09T07:13:33;1999.90;;;999.90;;
52620;SDS011;38515;53.160;6.990;2022-09-09T07:16:04;1999.90;;;999.90;;
52620;SDS011;38515;53.160;6.990;2022-09-09T07:18:31;1999.90;;;999.90;;
52620;SDS011;38515;53.160;6.990;2022-09-09T07:20:57;1999.90;;;999.90;;
52620;SDS011;38515;53.160;6.990;2022-09-09T07:23:23;1999.90;;;999.90;;
52620;SDS011;38515;53.160;6.990;2022-09-09T07:25:49;1999.90;;;999.90;;
52620;SDS011;38515;53.160;6.990;2022-09-09T07:28:15;1999.90;;;999.90;;
52620;SDS011;38515;53.160;6.990;2022-09-09T07:30:42;1999.90;;;999.90;;
52620;SDS011;38515;53.160;6.990;2022-09-09T07:33:08;1999.90;;;999.90;;
52620;SDS011;38515;53.160;6.990;2022-09-09T07:35:35;1999.90;;;999.90;;
52620;SDS011;38515;53.160;6.990;2022-09-09T07:38:02;1999.90;;;999.90;;
52620;SDS011;38515;53.160;6.990;2022-09-09T07:40:32;1999.90;;;999.90;;
52620;SDS011;38515;53.160;6.990;2022-09-09T07:42:59;1999.90;;;999.90;;
52620;SDS011;38515;53.160;6.990;2022-09-09T07:45:26;1999.90;;;999.90;;
52620;SDS011;38515;53.160;6.990;2022-09-09T07:47:53;1999.90;;;999.90;;
52620;SDS011;38515;53.160;6.990;2022-09-09T07:50:22;1999.90;;;999.90;;
52620;SDS011;38515;53.160;6.990;2022-09-09T07:52:49;1999.90;;;999.90;;
52620;SDS011;38515;53.160;6.990;2022-09-09T07:55:16;1999.90;;;999.90;;
52620;SDS011;38515;53.160;6.990;2022-09-09T07:57:42;1999.90;;;999.90;;
52620;SDS011;38515;53.160;6.990;2022-09-09T08:00:08;1999.90;;;999.90;;
52620;SDS011;38515;53.160;6.990;2022-09-09T08:02:35;1999.90;;;999.90;;
52620;SDS011;38515;53.160;6.990;2022-09-09T08:05:01;1999.90;;;999.90;;
52620;SDS011;38515;53.160;6.990;2022-09-09T08:07:27;1999.90;;;999.90;;
52620;SDS011;38515;53.160;6.990;2022-09-09T08:09:53;1999.90;;;999.90;;
52620;SDS011;38515;53.160;6.990;2022-09-09T08:12:21;1999.90;;;999.90;;
52620;SDS011;38515;53.160;6.990;2022-09-09T08:14:47;1999.90;;;999.90;;
52620;SDS011;38515;53.160;6.990;2022-09-09T08:17:13;1999.90;;;999.90;;
52620;SDS011;38515;53.160;6.990;2022-09-09T08:19:39;1999.90;;;999.90;;
52620;SDS011;38515;53.160;6.990;2022-09-09T08:22:05;1999.90;;;999.90;;
52620;SDS011;38515;53.160;6.990;2022-09-09T08:24:32;1999.90;;;999.90;;
52620;SDS011;38515;53.160;6.990;2022-09-09T08:26:58;1999.90;;;999.90;;
52620;SDS011;38515;53.160;6.990;2022-09-09T08:29:24;1999.90;;;999.90;;
52620;SDS011;38515;53.160;6.990;2022-09-09T08:31:51;1999.90;;;999.90;;
52620;SDS011;38515;53.160;6.990;2022-09-09T08:34:19;1999.90;;;999.90;;
52620;SDS011;38515;53.160;6.990;2022-09-09T08:36:47;1999.90;;;999.90;;
52620;SDS011;38515;53.160;6.990;2022-09-09T08:39:14;1999.90;;;999.90;;
52620;SDS011;38515;53.160;6.990;2022-09-09T08:41:48;1999.90;;;999.90;;
52620;SDS011;38515;53.160;6.990;2022-09-09T08:47:06;1999.90;;;999.90;;
52620;SDS011;38515;53.160;6.990;2022-09-09T08:55:41;1999.90;;;999.90;;
52620;SDS011;38515;53.160;6.990;2022-09-09T09:03:40;1999.90;;;999.90;;
52620;SDS011;38515;53.160;6.990;2022-09-09T09:09:07;1999.90;;;999.90;;
52620;SDS011;38515;53.160;6.990;2022-09-09T09:11:35;1999.90;;;999.90;;
52620;SDS011;38515;53.160;6.990;2022-09-09T09:14:11;1999.90;;;999.90;;
52620;SDS011;38515;53.160;6.990;2022-09-09T09:16:51;1999.90;;;999.90;;
52620;SDS011;38515;53.160;6.990;2022-09-09T09:19:22;1999.90;;;999.90;;
52620;SDS011;38515;53.160;6.990;2022-09-09T09:22:00;1999.90;;;999.90;;
52620;SDS011;38515;53.160;6.990;2022-09-09T09:24:45;1999.90;;;999.90;;
52620;SDS011;38515;53.160;6.990;2022-09-09T09:27:18;1999.90;;;999.90;;
52620;SDS011;38515;53.160;6.990;2022-09-09T09:29:54;1999.90;;;999.90;;
52620;SDS011;38515;53.160;6.990;2022-09-09T09:32:23;1999.90;;;999.90;;
52620;SDS011;38515;53.160;6.990;2022-09-09T09:34:51;1999.90;;;999.90;;
52620;SDS011;38515;53.160;6.990;2022-09-09T09:37:30;1999.90;;;999.90;;
52620;SDS011;38515;53.160;6.990;2022-09-09T09:40:08;1999.90;;;999.90;;
52620;SDS011;38515;53.160;6.990;2022-09-09T09:42:36;1999.90;;;999.90;;
52620;SDS011;38515;53.160;6.990;2022-09-09T09:45:07;1999.90;;;999.90;;
52620;SDS011;38515;53.160;6.990;2022-09-09T09:47:43;1999.90;;;999.90;;
52620;SDS011;38515;53.160;6.990;2022-09-09T09:50:16;1999.90;;;999.90;;
52620;SDS011;38515;53.160;6.990;2022-09-09T09:52:51;1999.90;;;999.90;;
52620;SDS011;38515;53.160;6.990;2022-09-09T09:55:21;1999.90;;;999.90;;
52620;SDS011;38515;53.160;6.990;2022-09-09T09:57:49;1999.90;;;999.90;;
52620;SDS011;38515;53.160;6.990;2022-09-09T10:00:16;1999.90;;;999.90;;
52620;SDS011;38515;53.160;6.990;2022-09-09T10:02:44;1999.90;;;999.90;;
52620;SDS011;38515;53.160;6.990;2022-09-09T10:07:39;1999.90;;;999.90;;
52620;SDS011;38515;53.160;6.990;2022-09-09T10:10:08;1999.90;;;999.90;;
52620;SDS011;38515;53.160;6.990;2022-09-09T10:12:47;1999.90;;;999.90;;
52620;SDS011;38515;53.160;6.990;2022-09-09T10:15:24;1999.90;;;999.90;;
52620;SDS011;38515;53.160;6.990;2022-09-09T10:17:54;1999.90;;;999.90;;
52620;SDS011;38515;53.160;6.990;2022-09-09T10:20:45;1999.90;;;999.90;;
52620;SDS011;38515;53.160;6.990;2022-09-09T10:23:53;1999.90;;;999.90;;
52620;SDS011;38515;53.160;6.990;2022-09-09T10:26:38;1999.90;;;999.90;;
52620;SDS011;38515;53.160;6.990;2022-09-09T10:31:44;147.80;;;141.45;;
52620;SDS011;38515;53.160;6.990;2022-09-09T10:37:00;272.83;;;260.15;;
52620;SDS011;38515;53.160;6.990;2022-09-09T10:39:35;214.93;;;205.57;;
52620;SDS011;38515;53.160;6.990;2022-09-09T10:42:07;182.77;;;174.45;;
52620;SDS011;38515;53.160;6.990;2022-09-09T10:44:41;247.02;;;235.82;;
52620;SDS011;38515;53.160;6.990;2022-09-09T10:47:23;1999.90;;;999.90;;
52620;SDS011;38515;53.160;6.990;2022-09-09T10:55:19;202.75;;;194.05;;
52620;SDS011;38515;53.160;6.990;2022-09-09T10:57:48;85.13;;;81.05;;
52620;SDS011;38515;53.160;6.990;2022-09-09T11:00:19;187.60;;;179.13;;
52620;SDS011;38515;53.160;6.990;2022-09-09T11:02:50;165.00;;;157.93;;
52620;SDS011;38515;53.160;6.990;2022-09-09T11:05:40;49.63;;;46.90;;
52620;SDS011;38515;53.160;6.990;2022-09-09T11:13:15;42.22;;;39.83;;
52620;SDS011;38515;53.160;6.990;2022-09-09T11:15:49;41.33;;;39.40;;
52620;SDS011;38515;53.160;6.990;2022-09-09T11:18:19;85.07;;;81.55;;
52620;SDS011;38515;53.160;6.990;2022-09-09T11:20:48;140.98;;;134.90;;
52620;SDS011;38515;53.160;6.990;2022-09-09T11:23:23;121.18;;;115.60;;
52620;SDS011;38515;53.160;6.990;2022-09-09T11:26:02;40.15;;;38.10;;
52620;SDS011;38515;53.160;6.990;2022-09-09T11:28:46;69.60;;;66.05;;
52620;SDS011;38515;53.160;6.990;2022-09-09T11:36:49;102.90;;;97.68;;
52620;SDS011;38515;53.160;6.990;2022-09-09T11:39:48;260.63;;;248.88;;
52620;SDS011;38515;53.160;6.990;2022-09-09T11:42:25;51.55;;;49.20;;
52620;SDS011;38515;53.160;6.990;2022-09-09T11:44:52;67.55;;;64.78;;
52620;SDS011;38515;53.160;6.990;2022-09-09T11:47:24;68.03;;;65.03;;
52620;SDS011;38515;53.160;6.990;2022-09-09T11:49:54;43.23;;;40.67;;
52620;SDS011;38515;53.160;6.990;2022-09-09T11:52:23;46.70;;;44.42;;
52620;SDS011;38515;53.160;6.990;2022-09-09T11:55:08;41.08;;;38.95;;
52620;SDS011;38515;53.160;6.990;2022-09-09T11:57:36;38.33;;;36.45;;
52620;SDS011;38515;53.160;6.990;2022-09-09T12:00:04;111.32;;;106.57;;
52620;SDS011;38515;53.160;6.990;2022-09-09T12:02:31;33.80;;;31.77;;
52620;SDS011;38515;53.160;6.990;2022-09-09T12:05:00;91.53;;;87.68;;
52620;SDS011;38515;53.160;6.990;2022-09-09T12:07:32;45.78;;;43.47;;
52620;SDS011;38515;53.160;6.990;2022-09-09T12:12:47;127.40;;;121.88;;
52620;SDS011;38515;53.160;6.990;2022-09-09T12:15:19;61.72;;;58.17;;
52620;SDS011;38515;53.160;6.990;2022-09-09T12:17:49;133.00;;;127.00;;
52620;SDS011;38515;53.160;6.990;2022-09-09T12:20:19;59.33;;;55.60;;
52620;SDS011;38515;53.160;6.990;2022-09-09T12:25:29;190.90;;;182.82;;
52620;SDS011;38515;53.160;6.990;2022-09-09T12:28:02;60.50;;;57.63;;
52620;SDS011;38515;53.160;6.990;2022-09-09T12:30:37;171.07;;;164.07;;
52620;SDS011;38515;53.160;6.990;2022-09-09T12:33:11;154.57;;;148.02;;
52620;SDS011;38515;53.160;6.990;2022-09-09T12:35:38;169.60;;;162.15;;
52620;SDS011;38515;53.160;6.990;2022-09-09T12:38:06;230.07;;;220.40;;
52620;SDS011;38515;53.160;6.990;2022-09-09T12:40:54;166.50;;;159.48;;
52620;SDS011;38515;53.160;6.990;2022-09-09T12:43:22;219.33;;;210.13;;
52620;SDS011;38515;53.160;6.990;2022-09-09T12:45:50;152.07;;;145.10;;
52620;SDS011;38515;53.160;6.990;2022-09-09T12:48:24;148.70;;;142.73;;
52620;SDS011;38515;53.160;6.990;2022-09-09T12:50:56;97.20;;;92.55;;
52620;SDS011;38515;53.160;6.990;2022-09-09T12:53:23;104.43;;;100.22;;
52620;SDS011;38515;53.160;6.990;2022-09-09T12:55:58;38.85;;;37.05;;
52620;SDS011;38515;53.160;6.990;2022-09-09T12:58:27;81.10;;;77.63;;
52620;SDS011;38515;53.160;6.990;2022-09-09T13:00:58;61.88;;;58.88;;
52620;SDS011;38515;53.160;6.990;2022-09-09T13:03:25;43.42;;;41.60;;
52620;SDS011;38515;53.160;6.990;2022-09-09T13:05:52;35.55;;;33.72;;
52620;SDS011;38515;53.160;6.990;2022-09-09T13:08:19;51.88;;;49.65;;
52620;SDS011;38515;53.160;6.990;2022-09-09T13:10:47;52.92;;;50.33;;
52620;SDS011;38515;53.160;6.990;2022-09-09T13:13:22;54.07;;;51.27;;
52620;SDS011;38515;53.160;6.990;2022-09-09T13:16:15;53.35;;;51.03;;
52620;SDS011;38515;53.160;6.990;2022-09-09T13:18:45;50.85;;;48.42;;
52620;SDS011;38515;53.160;6.990;2022-09-09T13:21:12;49.55;;;47.25;;
52620;SDS011;38515;53.160;6.990;2022-09-09T13:23:38;52.85;;;50.42;;
52620;SDS011;38515;53.160;6.990;2022-09-09T13:26:05;55.33;;;52.72;;
52620;SDS011;38515;53.160;6.990;2022-09-09T13:28:47;41.88;;;39.95;;
52620;SDS011;38515;53.160;6.990;2022-09-09T13:31:21;35.22;;;33.42;;
52620;SDS011;38515;53.160;6.990;2022-09-09T13:33:52;45.90;;;43.45;;
52620;SDS011;38515;53.160;6.990;2022-09-09T13:36:27;43.35;;;41.22;;
52620;SDS011;38515;53.160;6.990;2022-09-09T13:38:56;41.55;;;39.75;;
52620;SDS011;38515;53.160;6.990;2022-09-09T13:41:25;46.40;;;44.35;;
52620;SDS011;38515;53.160;6.990;2022-09-09T13:43:57;36.38;;;34.67;;
52620;SDS011;38515;53.160;6.990;2022-09-09T13:48:55;72.32;;;69.22;;
52620;SDS011;38515;53.160;6.990;2022-09-09T13:51:27;35.75;;;33.78;;
52620;SDS011;38515;53.160;6.990;2022-09-09T13:54:00;35.10;;;33.28;;
52620;SDS011;38515;53.160;6.990;2022-09-09T13:56:26;36.67;;;34.65;;
52620;SDS011;38515;53.160;6.990;2022-09-09T13:58:52;35.67;;;34.15;;
52620;SDS011;38515;53.160;6.990;2022-09-09T14:01:18;59.40;;;56.85;;
52620;SDS011;38515;53.160;6.990;2022-09-09T14:03:44;46.05;;;43.22;;
52620;SDS011;38515;53.160;6.990;2022-09-09T14:06:10;43.90;;;41.90;;
52620;SDS011;38515;53.160;6.990;2022-09-09T14:08:36;55.03;;;52.50;;
52620;SDS011;38515;53.160;6.990;2022-09-09T14:11:03;72.93;;;69.72;;
52620;SDS011;38515;53.160;6.990;2022-09-09T14:13:29;61.78;;;59.22;;
52620;SDS011;38515;53.160;6.990;2022-09-09T14:15:55;50.03;;;48.05;;
52620;SDS011;38515;53.160;6.990;2022-09-09T14:18:22;71.40;;;68.45;;
52620;SDS011;38515;53.160;6.990;2022-09-09T14:20:50;83.07;;;79.55;;
52620;SDS011;38515;53.160;6.990;2022-09-09T14:23:16;78.43;;;75.40;;
52620;SDS011;38515;53.160;6.990;2022-09-09T14:25:42;52.55;;;49.97;;
52620;SDS011;38515;53.160;6.990;2022-09-09T14:28:09;257.00;;;244.55;;
52620;SDS011;38515;53.160;6.990;2022-09-09T14:30:37;1999.90;;;999.90;;
52620;SDS011;38515;53.160;6.990;2022-09-09T14:33:05;1999.90;;;999.90;;
52620;SDS011;38515;53.160;6.990;2022-09-09T14:35:31;1999.90;;;999.90;;
52620;SDS011;38515;53.160;6.990;2022-09-09T14:37:58;1999.90;;;999.90;;
52620;SDS011;38515;53.160;6.990;2022-09-09T14:40:26;1999.90;;;999.90;;
52620;SDS011;38515;53.160;6.990;2022-09-09T14:42:52;1999.90;;;999.90;;
52620;SDS011;38515;53.160;6.990;2022-09-09T14:45:18;1999.90;;;999.90;;
52620;SDS011;38515;53.160;6.990;2022-09-09T14:47:46;1999.90;;;999.90;;
52620;SDS011;38515;53.160;6.990;2022-09-09T14:50:12;1999.90;;;999.90;;
52620;SDS011;38515;53.160;6.990;2022-09-09T14:52:38;1999.90;;;999.90;;
52620;SDS011;38515;53.160;6.990;2022-09-09T14:55:04;1999.90;;;999.90;;
52620;SDS011;38515;53.160;6.990;2022-09-09T14:57:31;1999.90;;;999.90;;
52620;SDS011;38515;53.160;6.990;2022-09-09T14:59:57;1999.90;;;999.90;;
52620;SDS011;38515;53.160;6.990;2022-09-09T15:02:23;1999.90;;;999.90;;
52620;SDS011;38515;53.160;6.990;2022-09-09T15:04:48;1999.90;;;999.90;;
52620;SDS011;38515;53.160;6.990;2022-09-09T15:07:16;1999.90;;;999.90;;
52620;SDS011;38515;53.160;6.990;2022-09-09T15:09:44;1999.90;;;999.90;;
52620;SDS011;38515;53.160;6.990;2022-09-09T15:12:12;1999.90;;;999.90;;
52620;SDS011;38515;53.160;6.990;2022-09-09T15:14:39;1999.90;;;999.90;;